createdAt,value
2019-06-10T00:01:18.221Z,99.90
2019-06-10T00:03:51.443Z,99.90
2019-06-10T00:06:21.383Z,99.90
2019-06-10T00:08:51.742Z,99.90
2019-06-10T00:11:23.074Z,99.90
2019-06-10T00:13:53.291Z,99.90
2019-06-10T00:16:23.434Z,99.90
2019-06-10T00:18:53.807Z,99.90
2019-06-10T00:21:24.480Z,99.90
2019-06-10T00:23:54.772Z,99.90
2019-06-10T00:26:25.251Z,99.90
2019-06-10T00:28:55.653Z,99.90
2019-06-10T00:31:25.985Z,99.90
2019-06-10T00:33:56.429Z,99.90
2019-06-10T00:36:27.062Z,99.90
2019-06-10T00:38:57.376Z,99.90
2019-06-10T00:41:27.790Z,99.90
2019-06-10T00:44:00.847Z,99.90
2019-06-10T00:46:31.653Z,99.90
2019-06-10T00:49:05.613Z,99.90
2019-06-10T00:51:34.583Z,99.90
2019-06-10T00:54:06.547Z,95.10
2019-06-10T00:56:37.006Z,94.30
2019-06-10T00:59:07.792Z,92.20
2019-06-10T01:01:38.410Z,92.10
2019-06-10T01:04:13.874Z,92.50
2019-06-10T01:06:42.353Z,92.30
2019-06-10T01:09:14.810Z,91.90
2019-06-10T01:11:44.835Z,91.50
2019-06-10T01:14:15.506Z,90.80
2019-06-10T01:16:46.415Z,90.30
2019-06-10T01:19:16.910Z,89.00
2019-06-10T01:21:47.227Z,87.40
2019-06-10T01:24:18.177Z,87.20
2019-06-10T01:26:50.567Z,84.10
2019-06-10T01:29:21.222Z,83.10
2019-06-10T01:31:51.609Z,81.70
2019-06-10T01:34:22.188Z,79.40
2019-06-10T01:36:52.448Z,79.00
2019-06-10T01:39:24.127Z,77.90
2019-06-10T01:41:54.381Z,77.50
2019-06-10T01:44:24.601Z,72.50
2019-06-10T01:46:56.300Z,71.20
2019-06-10T01:49:26.674Z,69.10
2019-06-10T01:51:56.958Z,68.00
2019-06-10T01:54:28.381Z,67.00
2019-06-10T01:57:01.337Z,66.30
2019-06-10T01:59:31.295Z,63.60
2019-06-10T02:02:09.829Z,60.00
2019-06-10T02:04:41.227Z,62.00
2019-06-10T02:07:15.559Z,59.60
2019-06-10T02:09:44.883Z,59.20
2019-06-10T02:12:19.096Z,57.70
2019-06-10T02:14:50.914Z,57.80
2019-06-10T02:17:23.933Z,58.10
2019-06-10T02:19:55.216Z,57.50
2019-06-10T02:22:25.492Z,55.80
2019-06-10T02:24:57.659Z,55.70
2019-06-10T02:27:28.530Z,55.30
2019-06-10T02:30:13.398Z,54.60
2019-06-10T02:32:37.752Z,51.80
2019-06-10T02:35:14.643Z,52.60
2019-06-10T02:37:44.529Z,51.50
2019-06-10T02:40:18.426Z,52.10
2019-06-10T02:42:47.987Z,51.40
2019-06-10T02:45:23.705Z,52.60
2019-06-10T02:47:53.331Z,52.70
2019-06-10T02:50:44.131Z,53.90
2019-06-10T02:53:15.862Z,54.20
2019-06-10T02:55:45.478Z,55.30
2019-06-10T02:58:18.347Z,55.80
2019-06-10T03:00:49.040Z,56.40
2019-06-10T03:03:27.944Z,57.20
2019-06-10T03:05:53.637Z,58.10
2019-06-10T03:08:27.302Z,57.00
2019-06-10T03:10:57.241Z,57.20
2019-06-10T03:13:28.212Z,57.60
2019-06-10T03:16:15.715Z,58.10
2019-06-10T03:18:47.205Z,58.60
2019-06-10T03:21:17.986Z,59.00
2019-06-10T03:23:48.359Z,59.80
2019-06-10T03:26:19.260Z,59.40
2019-06-10T03:28:51.933Z,60.60
2019-06-10T03:31:28.381Z,60.50
2019-06-10T03:33:54.805Z,61.00
2019-06-10T03:36:26.108Z,61.60
2019-06-10T03:38:57.163Z,62.10
2019-06-10T03:41:28.037Z,62.30
2019-06-10T03:43:58.713Z,63.00
2019-06-10T03:46:29.506Z,63.40
2019-06-10T03:48:59.857Z,63.10
2019-06-10T03:51:33.306Z,63.30
2019-06-10T03:54:03.188Z,63.60
2019-06-10T03:56:33.738Z,63.90
2019-06-10T03:59:04.865Z,64.50
2019-06-10T04:01:35.176Z,64.80
2019-06-10T04:04:06.300Z,65.30
2019-06-10T04:06:36.862Z,66.10
2019-06-10T04:09:08.175Z,66.70
2019-06-10T04:11:39.382Z,67.10
2019-06-10T04:14:09.667Z,67.80
2019-06-10T04:16:40.064Z,68.10
2019-06-10T04:19:12.928Z,66.80
2019-06-10T04:21:43.279Z,66.70
2019-06-10T04:24:13.985Z,67.20
2019-06-10T04:26:44.147Z,67.00
2019-06-10T04:29:15.225Z,67.60
2019-06-10T04:31:45.433Z,68.10
2019-06-10T04:34:15.967Z,69.90
2019-06-10T04:36:46.264Z,73.90
2019-06-10T04:39:18.522Z,75.00
2019-06-10T04:41:48.802Z,76.60
2019-06-10T04:44:19.141Z,79.30
2019-06-10T04:46:51.954Z,81.40
2019-06-10T04:49:23.820Z,85.50
2019-06-10T04:51:53.323Z,90.00
2019-06-10T04:54:26.415Z,91.10
2019-06-10T04:56:56.488Z,91.60
2019-06-10T04:59:30.084Z,92.10
2019-06-10T05:02:02.755Z,91.90
2019-06-10T05:04:32.938Z,91.50
2019-06-10T05:07:03.427Z,90.70
2019-06-10T05:09:33.799Z,90.10
2019-06-10T05:12:04.413Z,86.50
2019-06-10T05:14:34.868Z,86.60
2019-06-10T05:17:05.583Z,87.90
2019-06-10T05:19:35.909Z,88.40
2019-06-10T05:22:07.401Z,88.80
2019-06-10T05:24:38.021Z,89.10
2019-06-10T05:27:08.436Z,89.10
2019-06-10T05:29:42.091Z,88.60
2019-06-10T05:32:13.235Z,88.10
2019-06-10T05:34:43.876Z,88.20
2019-06-10T05:37:14.441Z,90.10
2019-06-10T05:39:44.727Z,91.60
2019-06-10T05:42:15.125Z,91.70
2019-06-10T05:44:46.565Z,91.60
2019-06-10T05:47:16.840Z,91.60
2019-06-10T05:49:47.156Z,90.90
2019-06-10T05:52:23.371Z,90.80
2019-06-10T05:54:53.724Z,91.50
2019-06-10T05:57:25.731Z,92.10
2019-06-10T05:59:56.078Z,91.60
2019-06-10T06:02:27.718Z,91.60
2019-06-10T06:04:58.277Z,92.10
2019-06-10T06:07:29.184Z,92.40
2019-06-10T06:10:02.513Z,92.50
2019-06-10T06:12:34.541Z,92.20
2019-06-10T06:15:05.020Z,91.80
2019-06-10T06:17:36.852Z,91.90
2019-06-10T06:20:07.898Z,91.30
2019-06-10T06:22:38.377Z,90.60
2019-06-10T06:25:14.651Z,90.70
2019-06-10T06:27:43.227Z,90.90
2019-06-10T06:30:18.489Z,91.20
2019-06-10T06:32:46.267Z,91.40
2019-06-10T06:35:16.778Z,91.60
2019-06-10T06:37:47.381Z,92.10
2019-06-10T06:40:17.949Z,92.00
2019-06-10T06:42:48.348Z,92.10
2019-06-10T06:45:22.222Z,92.00
2019-06-10T06:47:53.626Z,91.90
2019-06-10T06:50:25.623Z,91.30
2019-06-10T06:53:21.271Z,91.20
2019-06-10T06:55:28.638Z,91.10
2019-06-10T06:57:59.850Z,90.80
2019-06-10T07:00:52.990Z,90.60
2019-06-10T07:03:08.056Z,90.60
2019-06-10T07:05:41.077Z,90.50
2019-06-10T07:08:13.121Z,90.40
2019-06-10T07:10:45.647Z,90.90
2019-06-10T07:13:15.916Z,91.20
2019-06-10T07:15:47.533Z,91.30
2019-06-10T07:18:18.237Z,90.70
2019-06-10T07:20:48.980Z,90.50
2019-06-10T07:23:23.106Z,90.20
2019-06-10T07:25:55.335Z,89.60
2019-06-10T07:28:25.960Z,87.80
2019-06-10T07:30:56.807Z,88.70
2019-06-10T07:33:27.183Z,89.90
2019-06-10T07:35:57.764Z,89.90
2019-06-10T07:38:28.494Z,88.90
2019-06-10T07:40:59.190Z,87.80
2019-06-10T07:43:29.314Z,83.10
2019-06-10T07:45:59.747Z,83.90
2019-06-10T07:48:32.984Z,82.80
2019-06-10T07:51:03.728Z,83.90
2019-06-10T07:53:36.599Z,86.00
2019-06-10T07:56:06.818Z,87.50
2019-06-10T07:58:47.426Z,88.60
2019-06-10T08:01:16.173Z,88.50
2019-06-10T08:03:46.779Z,89.90
2019-06-10T08:06:18.163Z,90.40
2019-06-10T08:08:48.783Z,90.90
2019-06-10T08:11:22.651Z,91.70
2019-06-10T08:13:54.247Z,91.70
2019-06-10T08:16:24.944Z,91.80
2019-06-10T08:19:22.141Z,91.70
2019-06-10T08:21:28.029Z,91.80
2019-06-10T08:23:58.611Z,91.90
2019-06-10T08:26:32.431Z,91.90
2019-06-10T08:29:04.449Z,91.20
2019-06-10T08:31:34.776Z,91.50
2019-06-10T08:34:06.374Z,90.40
2019-06-10T08:36:39.368Z,91.50
2019-06-10T08:39:12.062Z,92.40
2019-06-10T08:41:45.540Z,92.50
2019-06-10T08:44:13.400Z,92.70
2019-06-10T08:46:46.788Z,92.80
2019-06-10T08:49:17.434Z,92.50
2019-06-10T08:51:50.107Z,92.10
2019-06-10T08:54:19.859Z,90.00
2019-06-10T08:56:53.423Z,91.40
2019-06-10T08:59:24.959Z,91.30
2019-06-10T09:01:57.006Z,89.10
2019-06-10T09:04:29.530Z,89.50
2019-06-10T09:07:00.074Z,86.70
2019-06-10T09:09:32.873Z,87.10
2019-06-10T09:12:04.681Z,86.20
2019-06-10T09:14:35.538Z,84.50
2019-06-10T09:17:05.781Z,84.00
2019-06-10T09:19:36.221Z,78.90
2019-06-10T09:22:06.807Z,81.10
2019-06-10T09:24:37.052Z,81.60
2019-06-10T09:27:07.252Z,81.30
2019-06-10T09:29:39.575Z,78.50
2019-06-10T09:32:12.441Z,77.40
2019-06-10T09:34:51.574Z,77.10
2019-06-10T09:37:16.007Z,75.60
2019-06-10T09:39:53.941Z,74.40
2019-06-10T09:42:19.876Z,72.00
2019-06-10T09:44:52.622Z,72.40
2019-06-10T09:47:24.638Z,70.00
2019-06-10T09:49:55.750Z,71.10
2019-06-10T09:52:27.288Z,71.00
2019-06-10T09:54:57.715Z,70.90
2019-06-10T09:57:28.153Z,68.70
2019-06-10T09:59:59.124Z,70.00
2019-06-10T10:02:33.081Z,76.90
2019-06-10T10:05:03.100Z,82.70
2019-06-10T10:07:34.270Z,81.90
2019-06-10T10:10:06.291Z,82.20
2019-06-10T10:12:36.752Z,82.60
2019-06-10T10:15:26.492Z,84.30
2019-06-10T10:17:46.537Z,83.20
2019-06-10T10:20:16.260Z,80.00
2019-06-10T10:22:47.656Z,77.50
2019-06-10T10:25:19.832Z,77.80
2019-06-10T10:27:53.337Z,77.70
2019-06-10T10:30:26.999Z,77.80
2019-06-10T10:32:58.105Z,78.20
2019-06-10T10:36:15.930Z,78.70
2019-06-10T10:38:50.749Z,78.30
2019-06-10T10:41:24.118Z,77.00
2019-06-10T10:43:57.766Z,76.10
2019-06-10T10:46:26.986Z,72.80
2019-06-10T10:48:58.293Z,75.00
2019-06-10T10:51:28.890Z,73.60
2019-06-10T10:54:20.762Z,75.00
2019-06-10T10:56:36.002Z,73.30
2019-06-10T10:59:08.430Z,72.10
2019-06-10T11:01:39.140Z,74.10
2019-06-10T11:04:13.212Z,73.40
2019-06-10T11:06:44.890Z,71.10
2019-06-10T11:09:18.902Z,71.80
2019-06-10T11:11:54.684Z,70.90
2019-06-10T11:14:25.502Z,71.70
2019-06-10T11:16:58.048Z,71.50
2019-06-10T11:19:28.562Z,70.00
2019-06-10T11:21:58.938Z,69.70
2019-06-10T11:24:37.704Z,69.70
2019-06-10T11:27:03.120Z,68.00
2019-06-10T11:29:35.361Z,68.00
2019-06-10T11:32:06.826Z,69.60
2019-06-10T11:34:38.420Z,69.80
2019-06-10T11:37:09.070Z,71.80
2019-06-10T11:39:41.861Z,72.00
2019-06-10T11:42:13.299Z,72.30
2019-06-10T11:44:43.884Z,77.40
2019-06-10T11:47:15.412Z,82.70
2019-06-10T11:49:46.882Z,84.80
2019-06-10T11:52:17.987Z,80.60
2019-06-10T11:54:59.205Z,82.10
2019-06-10T11:57:22.832Z,75.10
2019-06-10T11:59:55.946Z,75.10
2019-06-10T12:02:27.201Z,75.70
2019-06-10T12:05:00.363Z,71.80
2019-06-10T12:07:29.896Z,70.70
2019-06-10T12:10:01.334Z,71.20
2019-06-10T12:12:33.683Z,74.10
2019-06-10T12:15:12.146Z,71.60
2019-06-10T12:17:51.189Z,71.20
2019-06-10T12:20:17.714Z,71.30
2019-06-10T12:22:49.505Z,71.60
2019-06-10T12:25:32.523Z,71.80
2019-06-10T12:27:57.400Z,73.90
2019-06-10T12:30:24.683Z,73.80
2019-06-10T12:32:58.726Z,73.20
2019-06-10T12:35:27.029Z,74.80
2019-06-10T12:37:59.838Z,75.80
2019-06-10T12:40:29.925Z,71.20
2019-06-10T12:43:02.577Z,69.80
2019-06-10T12:45:32.780Z,73.30
2019-06-10T12:48:06.333Z,74.30
2019-06-10T12:50:35.975Z,67.10
2019-06-10T12:53:07.254Z,69.60
2019-06-10T12:55:43.539Z,69.60
2019-06-10T12:58:10.355Z,69.20
2019-06-10T13:00:48.433Z,71.80
2019-06-10T13:03:18.966Z,72.10
2019-06-10T13:05:49.424Z,74.30
2019-06-10T13:08:23.970Z,70.40
2019-06-10T13:10:53.431Z,67.20
2019-06-10T13:13:23.958Z,68.80
2019-06-10T13:15:56.198Z,68.30
2019-06-10T13:18:29.760Z,67.90
2019-06-10T13:21:07.283Z,70.60
2019-06-10T13:23:36.095Z,67.20
2019-06-10T13:26:10.794Z,64.70
2019-06-10T13:28:38.633Z,67.20
2019-06-10T13:31:10.176Z,68.00
2019-06-10T13:33:42.918Z,66.70
2019-06-10T13:36:14.123Z,69.00
2019-06-10T13:38:44.948Z,67.30
2019-06-10T13:41:15.311Z,69.30
2019-06-10T13:43:46.151Z,68.00
2019-06-10T13:46:24.341Z,71.70
2019-06-10T13:48:53.504Z,68.50
2019-06-10T13:51:25.074Z,72.50
2019-06-10T13:53:56.836Z,69.80
2019-06-10T13:56:43.309Z,67.70
2019-06-10T13:59:07.569Z,69.60
2019-06-10T14:01:36.909Z,72.20
2019-06-10T14:04:15.624Z,71.10
2019-06-10T14:06:49.768Z,73.40
2019-06-10T14:09:16.611Z,71.40
2019-06-10T14:11:48.345Z,65.30
2019-06-10T14:14:18.724Z,67.50
2019-06-10T14:16:48.873Z,70.20
2019-06-10T14:19:19.336Z,71.70
2019-06-10T14:21:49.618Z,67.20
2019-06-10T14:24:22.525Z,68.90
2019-06-10T14:26:54.790Z,70.00
2019-06-10T14:29:25.517Z,65.10
2019-06-10T14:31:55.891Z,64.70
2019-06-10T14:34:26.479Z,63.50
2019-06-10T14:36:58.369Z,62.60
2019-06-10T14:39:28.492Z,65.80
2019-06-10T14:42:03.826Z,67.60
2019-06-10T14:44:33.996Z,67.80
2019-06-10T14:47:04.671Z,68.20
2019-06-10T14:49:34.967Z,65.30
2019-06-10T14:52:05.377Z,67.50
2019-06-10T14:54:38.470Z,67.90
2019-06-10T14:57:09.299Z,67.60
2019-06-10T14:59:42.423Z,67.20
2019-06-10T15:02:14.423Z,65.00
2019-06-10T15:04:44.730Z,66.30
2019-06-10T15:07:15.593Z,64.90
2019-06-10T15:09:46.596Z,63.90
2019-06-10T15:12:17.481Z,64.80
2019-06-10T15:14:48.104Z,63.60
2019-06-10T15:17:19.673Z,66.50
2019-06-10T15:19:50.074Z,62.60
2019-06-10T15:22:23.637Z,65.00
2019-06-10T15:24:53.484Z,67.50
2019-06-10T15:27:30.355Z,67.60
2019-06-10T15:29:55.753Z,70.00
2019-06-10T15:32:34.183Z,68.60
2019-06-10T15:34:58.769Z,64.00
2019-06-10T15:37:29.215Z,66.90
2019-06-10T15:39:59.711Z,68.10
2019-06-10T15:42:30.266Z,66.00
2019-06-10T15:45:02.488Z,66.60
2019-06-10T15:47:32.479Z,66.10
2019-06-10T15:50:03.176Z,66.10
2019-06-10T15:52:33.391Z,66.50
2019-06-10T15:55:04.262Z,66.20
2019-06-10T15:57:42.665Z,66.60
2019-06-10T16:00:12.264Z,64.90
2019-06-10T16:02:39.920Z,65.50
2019-06-10T16:05:13.848Z,65.70
2019-06-10T16:07:42.429Z,65.40
2019-06-10T16:10:17.806Z,65.60
2019-06-10T16:12:45.834Z,66.60
2019-06-10T16:15:17.760Z,66.50
2019-06-10T16:17:48.832Z,66.20
2019-06-10T16:20:19.652Z,66.90
2019-06-10T16:22:52.335Z,67.10
2019-06-10T16:25:25.182Z,68.30
2019-06-10T16:27:54.658Z,69.40
2019-06-10T16:30:26.046Z,67.40
2019-06-10T16:32:56.834Z,68.10
2019-06-10T16:35:27.243Z,68.70
2019-06-10T16:37:57.985Z,68.50
2019-06-10T16:40:28.375Z,66.90
2019-06-10T16:42:59.011Z,68.40
2019-06-10T16:45:31.666Z,68.40
2019-06-10T16:48:02.416Z,67.80
2019-06-10T16:50:34.010Z,66.70
2019-06-10T16:53:04.775Z,67.50
2019-06-10T16:55:35.664Z,67.80
2019-06-10T16:58:08.400Z,67.30
2019-06-10T17:00:38.080Z,69.20
2019-06-10T17:03:08.611Z,68.50
2019-06-10T17:05:38.914Z,68.00
2019-06-10T17:08:12.515Z,67.80
2019-06-10T17:10:43.509Z,67.60
2019-06-10T17:13:15.718Z,67.90
2019-06-10T17:15:46.075Z,66.90
2019-06-10T17:18:16.336Z,67.30
2019-06-10T17:20:46.828Z,67.00
2019-06-10T17:23:24.668Z,67.50
2019-06-10T17:25:57.217Z,66.70
2019-06-10T17:28:31.610Z,67.00
2019-06-10T17:31:00.075Z,67.20
2019-06-10T17:33:34.669Z,68.50
2019-06-10T17:36:03.636Z,68.50
2019-06-10T17:38:34.182Z,68.30
2019-06-10T17:41:04.393Z,68.30
2019-06-10T17:43:34.855Z,68.10
2019-06-10T17:46:05.558Z,68.30
2019-06-10T17:48:35.924Z,68.90
2019-06-10T17:51:06.429Z,69.20
2019-06-10T17:53:37.305Z,69.20
2019-06-10T17:56:07.624Z,68.50
2019-06-10T17:58:53.428Z,68.60
2019-06-10T18:01:12.738Z,68.70
2019-06-10T18:03:43.008Z,71.70
2019-06-10T18:06:14.074Z,71.10
2019-06-10T18:08:46.170Z,69.70
2019-06-10T18:11:16.698Z,69.30
2019-06-10T18:13:46.903Z,70.10
2019-06-10T18:16:17.218Z,70.80
2019-06-10T18:18:47.646Z,71.50
2019-06-10T18:21:17.926Z,71.70
2019-06-10T18:23:48.714Z,71.90
2019-06-10T18:26:18.871Z,72.80
2019-06-10T18:29:08.108Z,74.00
2019-06-10T18:31:23.317Z,74.10
2019-06-10T18:33:53.693Z,75.00
2019-06-10T18:36:25.822Z,75.20
2019-06-10T18:38:56.805Z,75.20
2019-06-10T18:41:27.854Z,76.00
2019-06-10T18:44:02.176Z,76.20
2019-06-10T18:46:33.241Z,79.20
2019-06-10T18:49:04.372Z,79.10
2019-06-10T18:51:37.259Z,79.70
2019-06-10T18:54:06.902Z,79.80
2019-06-10T18:56:38.030Z,80.80
2019-06-10T18:59:16.585Z,81.30
2019-06-10T19:01:42.274Z,81.50
2019-06-10T19:04:13.026Z,81.80
2019-06-10T19:06:43.841Z,82.50
2019-06-10T19:09:14.471Z,82.80
2019-06-10T19:11:45.076Z,83.80
2019-06-10T19:14:15.380Z,84.00
2019-06-10T19:16:45.953Z,85.10
2019-06-10T19:19:16.401Z,86.30
2019-06-10T19:22:01.908Z,87.60
2019-06-10T19:24:20.013Z,88.30
2019-06-10T19:26:52.604Z,88.00
2019-06-10T19:29:33.672Z,87.30
2019-06-10T19:34:31.764Z,88.10
2019-06-10T19:37:02.670Z,86.90
2019-06-10T19:39:38.306Z,87.00
2019-06-10T19:42:05.065Z,87.20
2019-06-10T19:44:36.944Z,87.50
2019-06-10T19:47:07.585Z,87.70
2019-06-10T19:49:38.647Z,88.20
2019-06-10T19:52:12.075Z,89.00
2019-06-10T19:54:44.196Z,89.40
2019-06-10T19:57:15.072Z,90.50
2019-06-10T20:00:03.740Z,90.40
2019-06-10T20:02:18.151Z,91.60
2019-06-10T20:04:48.336Z,91.70
2019-06-10T20:07:18.748Z,91.50
2019-06-10T20:09:49.354Z,91.70
2019-06-10T20:12:19.899Z,91.60
2019-06-10T20:14:52.888Z,91.90
2019-06-10T20:17:24.052Z,92.00
2019-06-10T20:19:54.353Z,92.00
2019-06-10T20:22:24.782Z,92.10
2019-06-10T20:24:55.311Z,91.80
2019-06-10T20:27:25.766Z,91.70
2019-06-10T20:30:07.879Z,91.70
2019-06-10T20:32:28.104Z,91.70
2019-06-10T20:34:58.394Z,91.80
2019-06-10T20:37:28.728Z,91.90
2019-06-10T20:39:58.952Z,92.30
2019-06-10T20:42:29.442Z,91.90
2019-06-10T20:45:04.556Z,91.80
2019-06-10T20:47:33.329Z,92.00
2019-06-10T20:50:04.250Z,91.90
2019-06-10T20:52:34.823Z,91.90
2019-06-10T20:55:07.297Z,92.10
2019-06-10T20:57:51.818Z,92.40
2019-06-10T21:00:22.178Z,93.40
2019-06-10T21:02:45.526Z,96.20
2019-06-10T21:05:14.529Z,97.30
2019-06-10T21:07:46.881Z,97.90
2019-06-10T21:10:22.248Z,98.10
2019-06-10T21:12:52.953Z,98.70
2019-06-10T21:15:23.247Z,99.40
2019-06-10T21:17:53.405Z,99.40
2019-06-10T21:20:23.843Z,99.80
2019-06-10T21:22:55.044Z,99.90
2019-06-10T21:25:25.441Z,99.90
2019-06-10T21:27:55.819Z,99.90
2019-06-10T21:30:37.460Z,99.90
2019-06-10T21:32:58.394Z,99.90
2019-06-10T21:35:28.637Z,99.90
2019-06-10T21:37:58.880Z,99.90
2019-06-10T21:40:29.191Z,99.90
2019-06-10T21:42:59.632Z,99.90
2019-06-10T21:45:32.308Z,99.90
2019-06-10T21:48:02.502Z,99.90
2019-06-10T21:50:33.511Z,99.90
2019-06-10T21:53:05.323Z,99.90
2019-06-10T21:55:35.691Z,99.90
2019-06-10T21:58:07.542Z,99.90
2019-06-10T22:00:59.392Z,99.90
2019-06-10T22:03:16.026Z,99.90
2019-06-10T22:05:49.544Z,99.90
2019-06-10T22:08:20.700Z,99.90
2019-06-10T22:10:54.676Z,99.90
2019-06-10T22:13:23.424Z,99.90
2019-06-10T22:15:56.989Z,99.90
2019-06-10T22:18:27.485Z,99.90
2019-06-10T22:20:58.434Z,99.90
2019-06-10T22:23:28.936Z,99.90
2019-06-10T22:26:02.602Z,99.90
2019-06-10T22:28:32.875Z,99.90
2019-06-10T22:31:18.073Z,99.90
2019-06-10T22:33:35.247Z,99.90
2019-06-10T22:36:07.204Z,99.90
2019-06-10T22:38:37.376Z,99.90
2019-06-10T22:41:08.030Z,99.90
2019-06-10T22:43:38.583Z,99.90
2019-06-10T22:46:09.260Z,99.90
2019-06-10T22:48:42.344Z,99.90
2019-06-10T22:51:12.253Z,99.90
2019-06-10T22:53:43.073Z,99.90
2019-06-10T22:56:13.557Z,99.90
2019-06-10T22:58:44.129Z,99.90
2019-06-10T23:01:30.552Z,99.90
2019-06-10T23:03:48.227Z,99.90
2019-06-10T23:06:18.453Z,99.90
2019-06-10T23:08:50.267Z,99.90
2019-06-10T23:11:23.809Z,99.90
2019-06-10T23:13:55.022Z,99.90
2019-06-10T23:16:25.927Z,99.90
2019-06-10T23:18:58.410Z,99.90
2019-06-10T23:21:29.743Z,99.90
2019-06-10T23:24:03.087Z,99.90
2019-06-10T23:26:33.352Z,99.90
2019-06-10T23:29:04.123Z,99.90
2019-06-10T23:31:48.556Z,99.90
2019-06-10T23:34:07.523Z,99.90
2019-06-10T23:36:38.986Z,99.90
2019-06-10T23:39:09.735Z,99.90
2019-06-10T23:41:43.234Z,99.90
2019-06-10T23:44:12.972Z,99.90
2019-06-10T23:46:43.558Z,99.90
2019-06-10T23:49:13.918Z,99.90
2019-06-10T23:51:44.437Z,99.90
2019-06-10T23:54:15.178Z,99.90
2019-06-10T23:56:45.634Z,99.90
2019-06-10T23:59:15.793Z,99.90
